LPE2023 SPJC-SPTU
Flight info
| Callsign | LPE2023 |
|---|---|
| Flight time | 1h 16m |
| Altitude | 37000 |
| Route | EVSUR2 ILPIP UT218 ANBON1 |
| Aircraft | A319/M-SDE3FGHIRWY/LB1 |
Departure
| Time | 2026-05-05 20:29 |
|---|---|
| Airport | Jorge Chávez International Airport (SPJC) |
Arrival
| Time | 2026-05-05 21:46 |
|---|---|
| Airport | Padre Aldamiz International Airport (SPTU) |
| Time | Latitude | Longitude | Altitude | Speed | Heading |
|---|---|---|---|---|---|
| 2026-05-05 19:52 | -12.02682 | -77.11689 | 128 ft | 0 kts | 243° |
| 2026-05-05 20:12 | -12.02678 | -77.11679 | 128 ft | 2 kts | 245° |
| 2026-05-05 20:12 | -12.02671 | -77.11665 | 128 ft | 2 kts | 243° |
| 2026-05-05 20:13 | -12.02664 | -77.11652 | 128 ft | 2 kts | 244° |
| 2026-05-05 20:13 | -12.02659 | -77.11641 | 128 ft | 1 kts | 275° |
| 2026-05-05 20:13 | -12.02664 | -77.11630 | 128 ft | 0 kts | 329° |
| 2026-05-05 20:13 | -12.02672 | -77.11627 | 128 ft | 2 kts | 339° |
| 2026-05-05 20:14 | -12.02679 | -77.11624 | 128 ft | 1 kts | 325° |
| 2026-05-05 20:14 | -12.02684 | -77.11621 | 128 ft | 0 kts | 333° |
| 2026-05-05 20:16 | -12.02681 | -77.11623 | 128 ft | 1 kts | 334° |
| 2026-05-05 20:16 | -12.02660 | -77.11633 | 128 ft | 5 kts | 335° |
| 2026-05-05 20:17 | -12.02634 | -77.11645 | 128 ft | 5 kts | 334° |
| 2026-05-05 20:17 | -12.02595 | -77.11665 | 128 ft | 6 kts | 334° |
| 2026-05-05 20:17 | -12.02552 | -77.11686 | 128 ft | 6 kts | 335° |
| 2026-05-05 20:17 | -12.02507 | -77.11707 | 128 ft | 7 kts | 335° |
| 2026-05-05 20:18 | -12.02462 | -77.11730 | 128 ft | 7 kts | 333° |
| 2026-05-05 20:18 | -12.02413 | -77.11745 | 128 ft | 7 kts | 13° |
| 2026-05-05 20:18 | -12.02381 | -77.11705 | 128 ft | 7 kts | 64° |
| 2026-05-05 20:18 | -12.02357 | -77.11655 | 128 ft | 7 kts | 65° |
| 2026-05-05 20:19 | -12.02314 | -77.11629 | 129 ft | 7 kts | 350° |
| 2026-05-05 20:19 | -12.02263 | -77.11651 | 129 ft | 8 kts | 334° |
| 2026-05-05 20:19 | -12.02212 | -77.11676 | 129 ft | 8 kts | 334° |
| 2026-05-05 20:19 | -12.02159 | -77.11702 | 129 ft | 8 kts | 334° |
| 2026-05-05 20:20 | -12.02104 | -77.11729 | 129 ft | 8 kts | 333° |
| 2026-05-05 20:20 | -12.02048 | -77.11757 | 129 ft | 9 kts | 334° |
| 2026-05-05 20:20 | -12.01991 | -77.11784 | 129 ft | 9 kts | 334° |
| 2026-05-05 20:20 | -12.01932 | -77.11816 | 129 ft | 9 kts | 332° |
| 2026-05-05 20:21 | -12.01873 | -77.11844 | 129 ft | 9 kts | 351° |
| 2026-05-05 20:21 | -12.01819 | -77.11812 | 129 ft | 7 kts | 41° |
| 2026-05-05 20:21 | -12.01775 | -77.11810 | 129 ft | 5 kts | 338° |
| 2026-05-05 20:21 | -12.01759 | -77.11818 | 129 ft | 4 kts | 337° |
| 2026-05-05 20:22 | -12.01714 | -77.11840 | 129 ft | 10 kts | 334° |
| 2026-05-05 20:22 | -12.01634 | -77.11880 | 129 ft | 14 kts | 334° |
| 2026-05-05 20:22 | -12.01596 | -77.11898 | 129 ft | 1 kts | 335° |
| 2026-05-05 20:22 | -12.01577 | -77.11908 | 129 ft | 4 kts | 334° |
| 2026-05-05 20:23 | -12.01544 | -77.11924 | 129 ft | 6 kts | 334° |
| 2026-05-05 20:23 | -12.01500 | -77.11947 | 129 ft | 7 kts | 333° |
| 2026-05-05 20:23 | -12.01444 | -77.11974 | 129 ft | 9 kts | 335° |
| 2026-05-05 20:23 | -12.01376 | -77.12006 | 129 ft | 11 kts | 334° |
| 2026-05-05 20:24 | -12.01302 | -77.12050 | 129 ft | 12 kts | 317° |
| 2026-05-05 20:24 | -12.01263 | -77.12096 | 129 ft | 8 kts | 308° |
| 2026-05-05 20:24 | -12.01237 | -77.12130 | 129 ft | 6 kts | 310° |
| 2026-05-05 20:24 | -12.01197 | -77.12167 | 129 ft | 8 kts | 324° |
| 2026-05-05 20:25 | -12.01152 | -77.12191 | 129 ft | 6 kts | 333° |
| 2026-05-05 20:25 | -12.01106 | -77.12213 | 129 ft | 8 kts | 335° |
| 2026-05-05 20:25 | -12.01065 | -77.12232 | 129 ft | 3 kts | 334° |
| 2026-05-05 20:25 | -12.01036 | -77.12248 | 129 ft | 5 kts | 330° |
| 2026-05-05 20:26 | -12.00994 | -77.12270 | 129 ft | 7 kts | 334° |
| 2026-05-05 20:26 | -12.00947 | -77.12293 | 129 ft | 5 kts | 333° |
| 2026-05-05 20:26 | -12.00936 | -77.12299 | 129 ft | 1 kts | 333° |
| 2026-05-05 20:26 | -12.00918 | -77.12308 | 129 ft | 3 kts | 338° |
| 2026-05-05 20:27 | -12.00885 | -77.12314 | 129 ft | 5 kts | 359° |
| 2026-05-05 20:27 | -12.00850 | -77.12290 | 129 ft | 7 kts | 66° |
| 2026-05-05 20:27 | -12.00827 | -77.12236 | 129 ft | 9 kts | 66° |
| 2026-05-05 20:27 | -12.00799 | -77.12173 | 129 ft | 10 kts | 65° |
| 2026-05-05 20:28 | -12.00782 | -77.12128 | 129 ft | 3 kts | 107° |
| 2026-05-05 20:28 | -12.00793 | -77.12120 | 129 ft | 0 kts | 154° |
| 2026-05-05 20:28 | -12.00796 | -77.12119 | 129 ft | 5 kts | 154° |
| 2026-05-05 20:28 | -12.01071 | -77.11984 | 129 ft | 83 kts | 154° |
| 2026-05-05 20:29 | -12.01807 | -77.11618 | 132 ft | 149 kts | 152° |
| 2026-05-05 20:29 | -12.02775 | -77.11133 | 683 ft | 157 kts | 155° |
| 2026-05-05 20:29 | -12.03785 | -77.10649 | 1345 ft | 166 kts | 155° |
| 2026-05-05 20:29 | -12.04868 | -77.10118 | 1901 ft | 183 kts | 154° |
| 2026-05-05 20:30 | -12.06077 | -77.09519 | 2448 ft | 203 kts | 154° |
| 2026-05-05 20:30 | -12.07414 | -77.08857 | 3053 ft | 224 kts | 153° |
| 2026-05-05 20:30 | -12.08875 | -77.08133 | 3720 ft | 243 kts | 153° |
| 2026-05-05 20:30 | -12.10429 | -77.07363 | 4401 ft | 260 kts | 153° |
| 2026-05-05 20:31 | -12.12111 | -77.06531 | 5131 ft | 276 kts | 153° |
| 2026-05-05 20:31 | -12.13856 | -77.05670 | 6105 ft | 279 kts | 153° |
| 2026-05-05 20:31 | -12.15569 | -77.04818 | 7076 ft | 281 kts | 151° |
| 2026-05-05 20:31 | -12.17053 | -77.03555 | 8066 ft | 277 kts | 121° |
| 2026-05-05 20:32 | -12.17605 | -77.01755 | 9040 ft | 269 kts | 89° |
| 2026-05-05 20:32 | -12.17225 | -76.99926 | 9797 ft | 270 kts | 63° |
| 2026-05-05 20:32 | -12.16127 | -76.98338 | 10275 ft | 280 kts | 48° |
| 2026-05-05 20:32 | -12.14799 | -76.96811 | 10718 ft | 297 kts | 48° |
| 2026-05-05 20:33 | -12.13421 | -76.95191 | 11180 ft | 311 kts | 50° |
| 2026-05-05 20:33 | -12.12011 | -76.93472 | 11824 ft | 316 kts | 51° |
| 2026-05-05 20:33 | -12.10621 | -76.91740 | 12496 ft | 319 kts | 51° |
| 2026-05-05 20:33 | -12.09210 | -76.89960 | 13084 ft | 323 kts | 52° |
| 2026-05-05 20:34 | -12.07799 | -76.88174 | 13672 ft | 325 kts | 52° |
| 2026-05-05 20:34 | -12.06410 | -76.86350 | 14338 ft | 326 kts | 57° |
| 2026-05-05 20:34 | -12.05533 | -76.84245 | 15020 ft | 327 kts | 77° |
| 2026-05-05 20:34 | -12.05400 | -76.81927 | 15677 ft | 329 kts | 92° |
| 2026-05-05 20:35 | -12.05583 | -76.79623 | 16251 ft | 331 kts | 94° |
| 2026-05-05 20:35 | -12.05784 | -76.77277 | 16844 ft | 334 kts | 94° |
| 2026-05-05 20:35 | -12.05981 | -76.74915 | 17529 ft | 336 kts | 93° |
| 2026-05-05 20:35 | -12.06172 | -76.72524 | 18134 ft | 339 kts | 92° |
| 2026-05-05 20:36 | -12.06358 | -76.70116 | 18668 ft | 342 kts | 92° |
| 2026-05-05 20:36 | -12.06541 | -76.67698 | 19226 ft | 345 kts | 92° |
| 2026-05-05 20:36 | -12.06726 | -76.65251 | 19844 ft | 348 kts | 92° |
| 2026-05-05 20:36 | -12.06909 | -76.62800 | 20414 ft | 351 kts | 92° |
| 2026-05-05 20:37 | -12.07097 | -76.60292 | 20991 ft | 354 kts | 92° |
| 2026-05-05 20:37 | -12.07285 | -76.57779 | 21564 ft | 357 kts | 91° |
| 2026-05-05 20:37 | -12.07473 | -76.55254 | 22117 ft | 360 kts | 91° |
| 2026-05-05 20:37 | -12.07662 | -76.52695 | 22666 ft | 363 kts | 91° |
| 2026-05-05 20:38 | -12.07851 | -76.50122 | 23207 ft | 366 kts | 91° |
| 2026-05-05 20:38 | -12.08042 | -76.47529 | 23724 ft | 369 kts | 91° |
| 2026-05-05 20:38 | -12.08234 | -76.44919 | 24234 ft | 372 kts | 91° |
| 2026-05-05 20:38 | -12.08427 | -76.42300 | 24734 ft | 375 kts | 91° |
| 2026-05-05 20:39 | -12.08623 | -76.39632 | 25228 ft | 379 kts | 91° |
| 2026-05-05 20:39 | -12.08820 | -76.36948 | 25705 ft | 382 kts | 91° |
| 2026-05-05 20:39 | -12.09019 | -76.34234 | 26183 ft | 385 kts | 90° |
| 2026-05-05 20:39 | -12.09218 | -76.31520 | 26654 ft | 388 kts | 90° |
| 2026-05-05 20:40 | -12.09422 | -76.28754 | 27122 ft | 391 kts | 90° |
| 2026-05-05 20:40 | -12.09626 | -76.25970 | 27593 ft | 394 kts | 90° |
| 2026-05-05 20:40 | -12.09828 | -76.23204 | 28049 ft | 397 kts | 90° |
| 2026-05-05 20:40 | -12.10034 | -76.20368 | 28487 ft | 400 kts | 90° |
| 2026-05-05 20:41 | -12.10241 | -76.17530 | 28901 ft | 404 kts | 90° |
| 2026-05-05 20:41 | -12.10451 | -76.14655 | 29321 ft | 408 kts | 90° |
| 2026-05-05 20:41 | -12.10661 | -76.11787 | 29779 ft | 410 kts | 90° |
| 2026-05-05 20:41 | -12.10872 | -76.08882 | 30233 ft | 412 kts | 90° |
| 2026-05-05 20:42 | -12.11084 | -76.05953 | 30659 ft | 415 kts | 90° |
| 2026-05-05 20:42 | -12.11295 | -76.03040 | 31045 ft | 418 kts | 90° |
| 2026-05-05 20:42 | -12.11496 | -76.00048 | 31442 ft | 421 kts | 90° |
| 2026-05-05 20:42 | -12.11676 | -75.97088 | 31833 ft | 424 kts | 90° |
| 2026-05-05 20:43 | -12.11855 | -75.94065 | 32193 ft | 427 kts | 90° |
| 2026-05-05 20:43 | -12.12036 | -75.91034 | 32552 ft | 430 kts | 90° |
| 2026-05-05 20:43 | -12.12218 | -75.87981 | 32951 ft | 433 kts | 90° |
| 2026-05-05 20:43 | -12.12403 | -75.84930 | 33355 ft | 435 kts | 90° |
| 2026-05-05 20:44 | -12.12590 | -75.81821 | 33758 ft | 437 kts | 90° |
| 2026-05-05 20:44 | -12.12776 | -75.78753 | 34276 ft | 437 kts | 90° |
| 2026-05-05 20:44 | -12.12962 | -75.75682 | 34824 ft | 435 kts | 90° |
| 2026-05-05 20:44 | -12.13148 | -75.72593 | 35337 ft | 434 kts | 91° |
| 2026-05-05 20:45 | -12.13515 | -75.66473 | 36227 ft | 434 kts | 91° |
| 2026-05-05 20:45 | -12.13697 | -75.63397 | 36577 ft | 436 kts | 91° |
| 2026-05-05 20:45 | -12.13881 | -75.60279 | 36879 ft | 438 kts | 91° |
| 2026-05-05 20:46 | -12.14065 | -75.57194 | 37182 ft | 440 kts | 91° |
| 2026-05-05 20:46 | -12.14252 | -75.54067 | 37467 ft | 442 kts | 92° |
| 2026-05-05 20:46 | -12.14436 | -75.50932 | 37753 ft | 444 kts | 92° |
| 2026-05-05 20:46 | -12.14622 | -75.47769 | 37980 ft | 447 kts | 92° |
| 2026-05-05 20:47 | -12.14995 | -75.41479 | 37976 ft | 448 kts | 92° |
| 2026-05-05 20:47 | -12.15372 | -75.35127 | 37977 ft | 449 kts | 92° |
| 2026-05-05 20:48 | -12.15745 | -75.28786 | 37970 ft | 448 kts | 92° |
| 2026-05-05 20:48 | -12.16120 | -75.22403 | 37961 ft | 449 kts | 92° |
| 2026-05-05 20:49 | -12.16486 | -75.16080 | 37955 ft | 448 kts | 92° |
| 2026-05-05 20:49 | -12.16851 | -75.09765 | 37954 ft | 447 kts | 92° |
| 2026-05-05 20:50 | -12.17216 | -75.03446 | 37949 ft | 448 kts | 92° |
| 2026-05-05 20:50 | -12.17581 | -74.97111 | 37939 ft | 446 kts | 92° |
| 2026-05-05 20:51 | -12.17944 | -74.90784 | 37946 ft | 447 kts | 92° |
| 2026-05-05 20:51 | -12.18304 | -74.84478 | 37906 ft | 446 kts | 92° |
| 2026-05-05 20:52 | -12.18664 | -74.78146 | 37864 ft | 447 kts | 91° |
| 2026-05-05 20:52 | -12.19021 | -74.71838 | 37808 ft | 447 kts | 91° |
| 2026-05-05 20:53 | -12.19377 | -74.65530 | 37757 ft | 447 kts | 91° |
| 2026-05-05 20:53 | -12.19731 | -74.59180 | 37741 ft | 446 kts | 92° |
| 2026-05-05 20:54 | -12.20085 | -74.52859 | 37748 ft | 446 kts | 92° |
| 2026-05-05 20:54 | -12.20439 | -74.46538 | 37731 ft | 447 kts | 92° |
| 2026-05-05 20:55 | -12.20789 | -74.40218 | 37680 ft | 447 kts | 92° |
| 2026-05-05 20:55 | -12.21139 | -74.33884 | 37522 ft | 447 kts | 91° |
| 2026-05-05 20:56 | -12.21483 | -74.27676 | 37382 ft | 425 kts | 91° |
| 2026-05-05 20:56 | -12.21806 | -74.21764 | 37234 ft | 418 kts | 91° |
| 2026-05-05 20:57 | -12.22130 | -74.15856 | 37162 ft | 418 kts | 91° |
| 2026-05-05 20:57 | -12.22454 | -74.09924 | 37062 ft | 417 kts | 91° |
| 2026-05-05 20:58 | -12.22775 | -74.04011 | 37026 ft | 418 kts | 91° |
| 2026-05-05 20:58 | -12.23093 | -73.98109 | 37032 ft | 417 kts | 91° |
| 2026-05-05 20:59 | -12.23408 | -73.92207 | 37069 ft | 418 kts | 91° |
| 2026-05-05 20:59 | -12.23851 | -73.86250 | 37147 ft | 420 kts | 93° |
| 2026-05-05 21:00 | -12.24379 | -73.80318 | 37222 ft | 420 kts | 93° |
| 2026-05-05 21:00 | -12.24903 | -73.74401 | 37281 ft | 419 kts | 93° |
| 2026-05-05 21:01 | -12.25426 | -73.68472 | 37308 ft | 419 kts | 93° |
| 2026-05-05 21:01 | -12.25942 | -73.62575 | 37370 ft | 420 kts | 93° |
| 2026-05-05 21:02 | -12.26462 | -73.56622 | 37375 ft | 419 kts | 93° |
| 2026-05-05 21:02 | -12.26977 | -73.50685 | 37420 ft | 420 kts | 93° |
| 2026-05-05 21:03 | -12.27496 | -73.44728 | 37430 ft | 421 kts | 93° |
| 2026-05-05 21:03 | -12.28015 | -73.38755 | 37410 ft | 421 kts | 93° |
| 2026-05-05 21:04 | -12.28530 | -73.32805 | 37380 ft | 422 kts | 93° |
| 2026-05-05 21:04 | -12.29045 | -73.26835 | 37337 ft | 422 kts | 93° |
| 2026-05-05 21:05 | -12.29560 | -73.20849 | 37299 ft | 422 kts | 93° |
| 2026-05-05 21:05 | -12.30071 | -73.14888 | 37251 ft | 422 kts | 93° |
| 2026-05-05 21:06 | -12.30580 | -73.08956 | 37230 ft | 422 kts | 93° |
| 2026-05-05 21:06 | -12.31092 | -73.02956 | 37169 ft | 428 kts | 92° |
| 2026-05-05 21:07 | -12.31615 | -72.96777 | 37117 ft | 444 kts | 92° |
| 2026-05-05 21:07 | -12.32150 | -72.90477 | 37128 ft | 448 kts | 92° |
| 2026-05-05 21:08 | -12.32688 | -72.84141 | 37152 ft | 449 kts | 93° |
| 2026-05-05 21:08 | -12.33228 | -72.77775 | 37165 ft | 449 kts | 92° |
| 2026-05-05 21:09 | -12.33762 | -72.71430 | 37155 ft | 448 kts | 92° |
| 2026-05-05 21:09 | -12.34293 | -72.65111 | 37177 ft | 448 kts | 92° |
| 2026-05-05 21:10 | -12.34822 | -72.58792 | 37224 ft | 449 kts | 92° |
| 2026-05-05 21:10 | -12.35352 | -72.52442 | 37236 ft | 448 kts | 92° |
| 2026-05-05 21:11 | -12.35880 | -72.46117 | 37295 ft | 448 kts | 92° |
| 2026-05-05 21:11 | -12.36408 | -72.39765 | 37351 ft | 448 kts | 92° |
| 2026-05-05 21:12 | -12.36931 | -72.33446 | 37379 ft | 448 kts | 92° |
| 2026-05-05 21:12 | -12.37456 | -72.27088 | 37391 ft | 448 kts | 92° |
| 2026-05-05 21:13 | -12.37979 | -72.20752 | 37431 ft | 448 kts | 92° |
| 2026-05-05 21:13 | -12.38499 | -72.14420 | 37485 ft | 448 kts | 92° |
| 2026-05-05 21:14 | -12.39015 | -72.08102 | 37524 ft | 448 kts | 92° |
| 2026-05-05 21:14 | -12.39535 | -72.01748 | 37575 ft | 447 kts | 92° |
| 2026-05-05 21:15 | -12.40051 | -71.95404 | 37577 ft | 447 kts | 92° |
| 2026-05-05 21:15 | -12.40560 | -71.89109 | 37553 ft | 447 kts | 92° |
| 2026-05-05 21:16 | -12.41076 | -71.82739 | 37513 ft | 448 kts | 92° |
| 2026-05-05 21:16 | -12.41588 | -71.76408 | 37467 ft | 447 kts | 92° |
| 2026-05-05 21:17 | -12.42097 | -71.70082 | 37451 ft | 448 kts | 92° |
| 2026-05-05 21:17 | -12.42606 | -71.63751 | 37352 ft | 448 kts | 92° |
| 2026-05-05 21:18 | -12.43112 | -71.57423 | 37277 ft | 447 kts | 92° |
| 2026-05-05 21:18 | -12.43613 | -71.51117 | 37224 ft | 447 kts | 92° |
| 2026-05-05 21:19 | -12.44115 | -71.44802 | 37180 ft | 446 kts | 92° |
| 2026-05-05 21:19 | -12.44615 | -71.38504 | 37157 ft | 447 kts | 92° |
| 2026-05-05 21:20 | -12.45118 | -71.32149 | 37122 ft | 447 kts | 91° |
| 2026-05-05 21:20 | -12.45616 | -71.25829 | 37092 ft | 446 kts | 91° |
| 2026-05-05 21:21 | -12.45862 | -71.22685 | 36632 ft | 451 kts | 91° |
| 2026-05-05 21:21 | -12.46115 | -71.19447 | 35664 ft | 457 kts | 91° |
| 2026-05-05 21:21 | -12.46366 | -71.16228 | 34890 ft | 457 kts | 92° |
| 2026-05-05 21:21 | -12.46617 | -71.13024 | 34253 ft | 455 kts | 92° |
| 2026-05-05 21:22 | -12.46871 | -71.09802 | 33609 ft | 452 kts | 92° |
| 2026-05-05 21:22 | -12.47119 | -71.06647 | 32971 ft | 449 kts | 92° |
| 2026-05-05 21:22 | -12.47368 | -71.03454 | 32344 ft | 447 kts | 92° |
| 2026-05-05 21:22 | -12.47611 | -71.00335 | 31840 ft | 443 kts | 92° |
| 2026-05-05 21:23 | -12.47857 | -70.97187 | 31383 ft | 438 kts | 92° |
| 2026-05-05 21:23 | -12.48096 | -70.94105 | 30920 ft | 433 kts | 92° |
| 2026-05-05 21:23 | -12.48332 | -70.91060 | 30450 ft | 429 kts | 92° |
| 2026-05-05 21:23 | -12.48565 | -70.88068 | 29989 ft | 424 kts | 92° |
| 2026-05-05 21:24 | -12.48796 | -70.85070 | 29513 ft | 421 kts | 92° |
| 2026-05-05 21:24 | -12.49026 | -70.82091 | 29053 ft | 417 kts | 92° |
| 2026-05-05 21:24 | -12.49251 | -70.79185 | 28608 ft | 413 kts | 92° |
| 2026-05-05 21:24 | -12.49476 | -70.76278 | 28169 ft | 409 kts | 92° |
| 2026-05-05 21:25 | -12.49697 | -70.73415 | 27754 ft | 404 kts | 92° |
| 2026-05-05 21:25 | -12.49917 | -70.70550 | 27341 ft | 400 kts | 92° |
| 2026-05-05 21:25 | -12.50132 | -70.67735 | 26937 ft | 395 kts | 92° |
| 2026-05-05 21:25 | -12.50345 | -70.64961 | 26535 ft | 391 kts | 92° |
| 2026-05-05 21:26 | -12.50554 | -70.62202 | 26126 ft | 387 kts | 92° |
| 2026-05-05 21:26 | -12.50762 | -70.59495 | 25732 ft | 383 kts | 92° |
| 2026-05-05 21:26 | -12.50968 | -70.56800 | 25322 ft | 380 kts | 92° |
| 2026-05-05 21:26 | -12.51172 | -70.54114 | 24917 ft | 376 kts | 92° |
| 2026-05-05 21:27 | -12.51374 | -70.51457 | 24514 ft | 373 kts | 92° |
| 2026-05-05 21:27 | -12.51574 | -70.48830 | 24121 ft | 369 kts | 92° |
| 2026-05-05 21:27 | -12.51771 | -70.46249 | 23751 ft | 365 kts | 92° |
| 2026-05-05 21:27 | -12.51965 | -70.43674 | 23373 ft | 362 kts | 92° |
| 2026-05-05 21:28 | -12.52160 | -70.41116 | 22989 ft | 358 kts | 92° |
| 2026-05-05 21:28 | -12.52351 | -70.38590 | 22614 ft | 355 kts | 92° |
| 2026-05-05 21:28 | -12.52538 | -70.36107 | 22239 ft | 352 kts | 92° |
| 2026-05-05 21:28 | -12.52726 | -70.33606 | 21871 ft | 350 kts | 91° |
| 2026-05-05 21:29 | -12.52908 | -70.31165 | 21474 ft | 349 kts | 92° |
| 2026-05-05 21:29 | -12.53093 | -70.28680 | 21040 ft | 348 kts | 92° |
| 2026-05-05 21:29 | -12.53279 | -70.26203 | 20605 ft | 348 kts | 92° |
| 2026-05-05 21:29 | -12.53463 | -70.23748 | 20174 ft | 349 kts | 92° |
| 2026-05-05 21:30 | -12.53648 | -70.21282 | 19747 ft | 348 kts | 92° |
| 2026-05-05 21:30 | -12.53834 | -70.18806 | 19315 ft | 348 kts | 92° |
| 2026-05-05 21:30 | -12.54017 | -70.16357 | 18896 ft | 348 kts | 92° |
| 2026-05-05 21:30 | -12.54201 | -70.13894 | 18475 ft | 347 kts | 92° |
| 2026-05-05 21:31 | -12.54383 | -70.11445 | 18054 ft | 347 kts | 93° |
| 2026-05-05 21:31 | -12.54611 | -70.08988 | 17600 ft | 348 kts | 96° |
| 2026-05-05 21:31 | -12.55048 | -70.06543 | 17139 ft | 349 kts | 102° |
| 2026-05-05 21:31 | -12.55688 | -70.04148 | 16663 ft | 350 kts | 105° |
| 2026-05-05 21:32 | -12.56387 | -70.01775 | 16205 ft | 350 kts | 105° |
| 2026-05-05 21:32 | -12.57090 | -69.99413 | 15778 ft | 349 kts | 106° |
| 2026-05-05 21:32 | -12.57796 | -69.97041 | 15335 ft | 348 kts | 105° |
| 2026-05-05 21:32 | -12.58497 | -69.94675 | 14889 ft | 348 kts | 105° |
| 2026-05-05 21:33 | -12.59194 | -69.92306 | 14444 ft | 347 kts | 105° |
| 2026-05-05 21:33 | -12.59886 | -69.89951 | 14000 ft | 347 kts | 106° |
| 2026-05-05 21:33 | -12.60579 | -69.87595 | 13554 ft | 346 kts | 105° |
| 2026-05-05 21:33 | -12.61277 | -69.85221 | 13105 ft | 345 kts | 105° |
| 2026-05-05 21:34 | -12.61958 | -69.82903 | 12670 ft | 345 kts | 105° |
| 2026-05-05 21:34 | -12.62649 | -69.80543 | 12232 ft | 344 kts | 105° |
| 2026-05-05 21:34 | -12.63333 | -69.78211 | 11785 ft | 343 kts | 106° |
| 2026-05-05 21:34 | -12.64021 | -69.75860 | 11326 ft | 343 kts | 106° |
| 2026-05-05 21:35 | -12.64704 | -69.73529 | 10874 ft | 342 kts | 106° |
| 2026-05-05 21:35 | -12.65381 | -69.71222 | 10430 ft | 341 kts | 106° |
| 2026-05-05 21:35 | -12.66054 | -69.68926 | 9997 ft | 332 kts | 106° |
| 2026-05-05 21:35 | -12.66701 | -69.66724 | 9897 ft | 315 kts | 106° |
| 2026-05-05 21:36 | -12.67326 | -69.64590 | 9443 ft | 312 kts | 105° |
| 2026-05-05 21:36 | -12.67946 | -69.62467 | 8994 ft | 307 kts | 106° |
| 2026-05-05 21:36 | -12.68556 | -69.60383 | 8590 ft | 305 kts | 105° |
| 2026-05-05 21:36 | -12.69161 | -69.58317 | 8210 ft | 305 kts | 105° |
| 2026-05-05 21:37 | -12.69762 | -69.56259 | 7850 ft | 304 kts | 105° |
| 2026-05-05 21:37 | -12.70374 | -69.54163 | 7497 ft | 303 kts | 105° |
| 2026-05-05 21:37 | -12.70970 | -69.52125 | 7242 ft | 298 kts | 105° |
| 2026-05-05 21:37 | -12.71561 | -69.50099 | 6942 ft | 296 kts | 105° |
| 2026-05-05 21:38 | -12.72152 | -69.48075 | 6538 ft | 296 kts | 105° |
| 2026-05-05 21:38 | -12.72730 | -69.46089 | 6186 ft | 290 kts | 105° |
| 2026-05-05 21:38 | -12.73298 | -69.44130 | 5828 ft | 285 kts | 105° |
| 2026-05-05 21:38 | -12.73863 | -69.42177 | 5401 ft | 287 kts | 105° |
| 2026-05-05 21:39 | -12.74430 | -69.40218 | 5012 ft | 289 kts | 105° |
| 2026-05-05 21:39 | -12.75000 | -69.38246 | 4634 ft | 290 kts | 105° |
| 2026-05-05 21:39 | -12.75573 | -69.36264 | 4268 ft | 286 kts | 105° |
| 2026-05-05 21:39 | -12.76128 | -69.34347 | 3957 ft | 277 kts | 105° |
| 2026-05-05 21:40 | -12.76666 | -69.32486 | 3544 ft | 273 kts | 105° |
| 2026-05-05 21:40 | -12.77200 | -69.30637 | 3128 ft | 266 kts | 105° |
| 2026-05-05 21:40 | -12.77707 | -69.28889 | 2974 ft | 245 kts | 105° |
| 2026-05-05 21:40 | -12.78170 | -69.27289 | 2956 ft | 221 kts | 105° |
| 2026-05-05 21:41 | -12.78599 | -69.25806 | 2903 ft | 211 kts | 104° |
| 2026-05-05 21:41 | -12.78857 | -69.24442 | 2911 ft | 185 kts | 82° |
| 2026-05-05 21:41 | -12.78283 | -69.23424 | 2833 ft | 155 kts | 25° |
| 2026-05-05 21:41 | -12.77272 | -69.23266 | 2742 ft | 145 kts | 354° |
| 2026-05-05 21:42 | -12.76270 | -69.23335 | 2688 ft | 143 kts | 355° |
| 2026-05-05 21:42 | -12.75277 | -69.23364 | 2683 ft | 143 kts | 358° |
| 2026-05-05 21:42 | -12.74261 | -69.23362 | 2665 ft | 144 kts | 359° |
| 2026-05-05 21:42 | -12.73267 | -69.23342 | 2566 ft | 144 kts | 360° |
| 2026-05-05 21:43 | -12.72255 | -69.23311 | 2421 ft | 143 kts | 0° |
| 2026-05-05 21:43 | -12.71262 | -69.23275 | 2270 ft | 144 kts | 0° |
| 2026-05-05 21:43 | -12.70253 | -69.23238 | 2080 ft | 143 kts | 1° |
| 2026-05-05 21:43 | -12.69265 | -69.23200 | 1901 ft | 142 kts | 0° |
| 2026-05-05 21:44 | -12.68264 | -69.23161 | 1723 ft | 142 kts | 1° |
| 2026-05-05 21:44 | -12.67277 | -69.23119 | 1540 ft | 142 kts | 0° |
| 2026-05-05 21:44 | -12.66288 | -69.23088 | 1334 ft | 142 kts | 2° |
| 2026-05-05 21:44 | -12.65295 | -69.23023 | 1174 ft | 142 kts | 1° |
| 2026-05-05 21:45 | -12.64302 | -69.22990 | 980 ft | 142 kts | 1° |
| 2026-05-05 21:45 | -12.63300 | -69.22948 | 802 ft | 142 kts | 2° |
| 2026-05-05 21:45 | -12.62327 | -69.22908 | 715 ft | 133 kts | 2° |
| 2026-05-05 21:45 | -12.61653 | -69.22880 | 714 ft | 75 kts | 2° |
| 2026-05-05 21:46 | -12.61195 | -69.22861 | 716 ft | 56 kts | 2° |
| 2026-05-05 21:46 | -12.60854 | -69.22847 | 714 ft | 41 kts | 2° |
| 2026-05-05 21:46 | -12.60657 | -69.22838 | 710 ft | 24 kts | 2° |
| 2026-05-05 21:46 | -12.60493 | -69.22832 | 710 ft | 22 kts | 2° |
| 2026-05-05 21:47 | -12.60356 | -69.22826 | 708 ft | 9 kts | 2° |
| 2026-05-05 21:47 | -12.60298 | -69.22803 | 707 ft | 9 kts | 59° |
| 2026-05-05 21:47 | -12.60296 | -69.22725 | 705 ft | 12 kts | 89° |
| 2026-05-05 21:47 | -12.60295 | -69.22633 | 704 ft | 13 kts | 92° |
| 2026-05-05 21:48 | -12.60299 | -69.22537 | 704 ft | 13 kts | 91° |
| 2026-05-05 21:48 | -12.60301 | -69.22442 | 703 ft | 13 kts | 89° |
| 2026-05-05 21:48 | -12.60303 | -69.22341 | 701 ft | 14 kts | 96° |
| 2026-05-05 21:48 | -12.60309 | -69.22269 | 701 ft | 3 kts | 95° |
| 2026-05-05 21:49 | -12.60315 | -69.22247 | 701 ft | 2 kts | 127° |
| 2026-05-05 21:49 | -12.60331 | -69.22240 | 701 ft | 2 kts | 181° |
| 2026-05-05 21:49 | -12.60360 | -69.22244 | 701 ft | 7 kts | 186° |
| 2026-05-05 21:49 | -12.60429 | -69.22246 | 702 ft | 9 kts | 178° |
| 2026-05-05 21:50 | -12.60448 | -69.22221 | 701 ft | 0 kts | 67° |
| 2026-05-05 21:50 | -12.60443 | -69.22213 | 701 ft | 3 kts | 55° |
| 2026-05-05 21:50 | -12.60435 | -69.22201 | 701 ft | 0 kts | 57° |